Time;durP1;ratioP1;P1;durP2;ratioP2;P2;SDS_P1;SDS_P2;PMS_P1;PMS_P2;Temp;Humidity;BMP_temperature;BMP_pressure;BME280_temperature;BME280_humidity;BME280_pressure;Samples;Min_cycle;Max_cycle;Signal;HPM_P1;HPM_P2
2022/05/12 00:01:24;;;;;;;11.25;8.07;;;18.00;99.90;;;;;;4953572;29;20034;-78
2022/05/12 00:03:50;;;;;;;13.27;7.47;;;17.90;99.90;;;;;;4946499;29;20027;-80
2022/05/12 00:06:15;;;;;;;18.92;7.78;;;17.90;99.90;;;;;;4950574;29;20019;-78
2022/05/12 00:08:41;;;;;;;18.30;8.40;;;17.80;99.90;;;;;;4954378;29;20032;-79
2022/05/12 00:11:07;;;;;;;11.85;7.80;;;17.80;99.90;;;;;;4952353;29;20039;-77
2022/05/12 00:13:33;;;;;;;11.00;7.20;;;17.80;99.90;;;;;;4956514;29;20054;-79
2022/05/12 00:15:59;;;;;;;13.20;8.65;;;17.80;99.90;;;;;;4952311;29;20078;-78
2022/05/12 00:18:26;;;;;;;15.10;7.40;;;17.80;99.90;;;;;;4951021;29;20369;-79
2022/05/12 00:20:52;;;;;;;11.13;8.00;;;17.70;99.90;;;;;;4954554;29;20043;-80
2022/05/12 00:23:26;;;;;;;14.05;8.35;;;17.60;99.90;;;;;;4956273;29;20035;-79
2022/05/12 00:25:52;;;;;;;12.80;8.30;;;17.60;99.90;;;;;;4954853;29;20055;-79
2022/05/12 00:28:22;;;;;;;12.35;7.43;;;17.60;99.90;;;;;;4952262;29;20028;-79
2022/05/12 00:30:50;;;;;;;11.18;7.53;;;17.50;99.90;;;;;;4951118;29;20051;-78
2022/05/12 00:33:17;;;;;;;11.70;7.85;;;17.50;99.90;;;;;;4953661;29;20028;-78
2022/05/12 00:35:45;;;;;;;12.85;7.57;;;17.40;99.90;;;;;;4948496;29;20039;-79
2022/05/12 00:38:12;;;;;;;11.77;7.20;;;17.40;99.90;;;;;;4952620;29;20027;-79
2022/05/12 00:40:42;;;;;;;12.45;7.68;;;17.50;99.90;;;;;;4951171;29;20103;-79
2022/05/12 00:43:29;;;;;;;9.68;7.40;;;17.50;99.90;;;;;;4945903;29;20548;-79
2022/05/12 00:45:55;;;;;;;12.18;8.32;;;17.50;99.90;;;;;;4940394;29;20031;-78
2022/05/12 00:48:20;;;;;;;12.05;7.43;;;17.50;99.90;;;;;;4945266;29;20119;-79
2022/05/12 00:50:46;;;;;;;15.73;8.43;;;17.40;99.90;;;;;;4941519;29;20043;-80
2022/05/12 00:53:14;;;;;;;14.52;7.97;;;17.40;99.90;;;;;;4943689;29;20028;-76
2022/05/12 00:55:43;;;;;;;15.38;8.23;;;17.30;99.90;;;;;;4944637;29;20035;-78
2022/05/12 00:58:13;;;;;;;13.60;8.60;;;17.20;99.90;;;;;;4945515;29;20015;-79
2022/05/12 01:00:40;;;;;;;15.30;8.27;;;17.20;99.90;;;;;;4948769;29;20035;-78
2022/05/12 01:03:15;;;;;;;14.57;8.75;;;17.10;99.90;;;;;;4947381;29;20071;-80
2022/05/12 01:05:41;;;;;;;13.40;8.27;;;17.10;99.90;;;;;;4944021;29;20062;-78
2022/05/12 01:08:13;;;;;;;14.80;8.32;;;17.00;99.90;;;;;;4942554;29;20032;-78
2022/05/12 01:10:40;;;;;;;14.80;8.35;;;17.00;99.90;;;;;;4946934;29;20534;-79
2022/05/12 01:13:06;;;;;;;15.55;8.18;;;16.90;99.90;;;;;;4953029;29;20028;-79
2022/05/12 01:15:32;;;;;;;12.98;8.13;;;16.90;99.90;;;;;;4949216;29;20036;-78
2022/05/12 01:18:04;;;;;;;12.40;8.48;;;16.90;99.90;;;;;;4943557;29;20047;-78
2022/05/12 01:20:29;;;;;;;15.90;8.85;;;16.80;99.90;;;;;;4941050;29;20568;-79
2022/05/12 01:23:13;;;;;;;13.23;8.15;;;16.80;99.90;;;;;;4944048;29;20055;-79
2022/05/12 01:25:38;;;;;;;17.90;8.80;;;16.80;99.90;;;;;;4943501;29;20133;-80
2022/05/12 01:28:04;;;;;;;15.50;9.35;;;16.80;99.90;;;;;;4942845;29;20105;-79
2022/05/12 01:30:30;;;;;;;16.95;9.05;;;16.80;99.90;;;;;;4940729;29;20109;-79
2022/05/12 01:32:56;;;;;;;11.23;8.98;;;16.70;99.90;;;;;;4940448;29;20473;-80
2022/05/12 01:35:24;;;;;;;23.52;9.48;;;16.70;99.90;;;;;;4939990;29;20107;-79
2022/05/12 01:37:50;;;;;;;16.65;9.23;;;16.60;99.90;;;;;;4940317;29;20155;-80
2022/05/12 01:40:19;;;;;;;10.70;7.90;;;16.70;99.90;;;;;;4940271;29;20483;-78
2022/05/12 01:42:45;;;;;;;18.35;9.07;;;16.70;99.90;;;;;;4941749;29;20454;-79
2022/05/12 01:45:12;;;;;;;16.30;8.85;;;16.60;99.90;;;;;;4944398;29;20062;-80
2022/05/12 01:47:40;;;;;;;14.98;8.38;;;16.60;99.90;;;;;;4940466;29;20070;-79
2022/05/12 01:50:08;;;;;;;13.60;8.98;;;16.50;99.90;;;;;;4941878;29;20023;-79
2022/05/12 01:52:34;;;;;;;13.02;8.10;;;16.50;99.90;;;;;;4941389;29;20027;-80
2022/05/12 01:54:59;;;;;;;11.32;8.75;;;16.50;99.90;;;;;;4946164;29;20047;-79
2022/05/12 01:57:25;;;;;;;11.93;8.98;;;16.40;99.90;;;;;;4953284;29;20020;-78
2022/05/12 01:59:51;;;;;;;13.40;8.52;;;16.40;99.90;;;;;;4946189;29;20040;-79
2022/05/12 02:02:17;;;;;;;9.82;7.50;;;16.40;99.90;;;;;;4944284;29;20031;-79
2022/05/12 02:04:43;;;;;;;10.23;8.07;;;16.40;99.90;;;;;;4950483;29;20035;-78
2022/05/12 02:07:09;;;;;;;12.48;7.72;;;16.40;99.90;;;;;;4951962;29;20023;-78
2022/05/12 02:09:35;;;;;;;11.73;7.53;;;16.40;99.90;;;;;;4952501;29;20039;-78
2022/05/12 02:12:01;;;;;;;11.73;7.72;;;16.40;99.90;;;;;;4949963;29;20040;-78
2022/05/12 02:14:27;;;;;;;11.60;7.82;;;16.40;99.90;;;;;;4949562;29;20034;-76
2022/05/12 02:16:53;;;;;;;11.52;9.10;;;16.40;99.90;;;;;;4958411;29;20043;-78
2022/05/12 02:19:19;;;;;;;12.27;9.10;;;16.40;99.90;;;;;;4958500;29;20032;-77
2022/05/12 02:21:45;;;;;;;11.57;8.43;;;16.30;99.90;;;;;;4959308;29;20027;-79
2022/05/12 02:24:11;;;;;;;13.27;8.00;;;16.30;99.90;;;;;;4958822;29;20019;-78
2022/05/12 02:26:37;;;;;;;11.35;7.68;;;16.20;99.90;;;;;;4958737;29;20020;-78
2022/05/12 02:29:04;;;;;;;14.60;8.63;;;16.10;99.90;;;;;;4949701;29;20059;-79
2022/05/12 02:31:30;;;;;;;12.40;8.93;;;16.10;99.90;;;;;;4957247;29;20032;-78
2022/05/12 02:33:56;;;;;;;16.17;9.35;;;16.10;99.90;;;;;;4957985;29;20042;-78
2022/05/12 02:36:21;;;;;;;11.65;8.82;;;16.10;99.90;;;;;;4957175;29;20036;-78
2022/05/12 02:38:48;;;;;;;13.73;8.48;;;16.10;99.90;;;;;;4959336;29;20079;-77
2022/05/12 02:41:14;;;;;;;11.35;8.80;;;16.00;99.90;;;;;;4959575;29;20058;-78
2022/05/12 02:43:40;;;;;;;11.00;7.97;;;16.00;99.90;;;;;;4959499;29;20028;-78
2022/05/12 02:46:08;;;;;;;12.73;9.05;;;16.00;99.90;;;;;;4957464;29;20455;-77
2022/05/12 02:48:37;;;;;;;11.60;8.85;;;16.00;99.90;;;;;;4954504;29;20090;-78
2022/05/12 02:51:03;;;;;;;15.95;9.85;;;16.00;99.90;;;;;;4947567;29;20028;-78
2022/05/12 02:53:30;;;;;;;14.80;9.25;;;16.00;99.90;;;;;;4955683;29;20087;-77
2022/05/12 02:55:57;;;;;;;13.73;9.95;;;16.00;99.90;;;;;;4955306;29;20043;-79
2022/05/12 02:58:23;;;;;;;14.48;9.15;;;16.00;99.90;;;;;;4957681;29;20060;-78
2022/05/12 03:00:50;;;;;;;14.57;10.05;;;16.00;99.90;;;;;;4996211;23;20065;-88
2022/05/12 03:03:16;;;;;;;15.05;9.80;;;16.00;99.90;;;;;;4965551;28;20026;-87
2022/05/12 03:05:41;;;;;;;16.40;9.38;;;16.00;99.90;;;;;;4997844;28;20018;-88
2022/05/12 03:08:09;;;;;;;14.23;9.90;;;16.00;99.90;;;;;;4981250;28;20034;-87
2022/05/12 03:10:36;;;;;;;18.10;9.82;;;15.90;99.90;;;;;;4997427;28;20004;-88
2022/05/12 03:13:03;;;;;;;19.95;9.63;;;15.90;99.90;;;;;;4981225;28;20054;-88
2022/05/12 03:15:29;;;;;;;17.52;9.95;;;15.90;99.90;;;;;;4998827;28;20086;-88
2022/05/12 03:17:55;;;;;;;17.20;9.73;;;15.90;99.90;;;;;;4998906;28;20050;-87
2022/05/12 03:20:23;;;;;;;15.68;9.52;;;15.90;99.90;;;;;;4995109;28;20027;-88
2022/05/12 03:22:50;;;;;;;17.30;9.93;;;15.90;99.90;;;;;;4994990;28;20992;-88
2022/05/12 03:25:18;;;;;;;19.85;10.23;;;15.90;99.90;;;;;;4982007;28;20082;-88
2022/05/12 03:27:45;;;;;;;21.13;10.45;;;15.90;99.90;;;;;;4996756;28;20079;-86
2022/05/12 03:30:15;;;;;;;19.90;10.18;;;15.90;99.90;;;;;;4998775;28;20011;-90
2022/05/12 03:32:40;;;;;;;15.02;9.85;;;15.90;99.90;;;;;;4998509;28;20011;-87
2022/05/12 03:35:07;;;;;;;14.45;9.65;;;15.90;99.90;;;;;;4998215;28;20039;-88
2022/05/12 03:37:33;;;;;;;15.40;10.32;;;15.90;99.90;;;;;;4998161;28;20058;-88
2022/05/12 03:39:59;;;;;;;17.48;9.55;;;15.90;99.90;;;;;;4998071;28;20039;-85
2022/05/12 03:42:25;;;;;;;14.50;10.10;;;15.90;99.90;;;;;;4981619;28;20078;-88
2022/05/12 03:44:53;;;;;;;19.80;10.40;;;15.90;99.90;;;;;;4998204;28;20019;-87
2022/05/12 03:47:20;;;;;;;18.73;11.18;;;15.90;99.90;;;;;;4997739;28;20046;-88
2022/05/12 03:49:48;;;;;;;13.38;10.25;;;15.90;99.90;;;;;;4964168;28;20077;-88
2022/05/12 03:52:14;;;;;;;16.27;10.65;;;15.90;99.90;;;;;;4980393;28;20027;-87
2022/05/12 03:54:40;;;;;;;15.05;10.45;;;15.90;99.90;;;;;;4998217;28;20110;-89
2022/05/12 03:57:06;;;;;;;20.17;11.35;;;15.90;99.90;;;;;;4982415;28;20043;-87
2022/05/12 03:59:34;;;;;;;17.75;11.30;;;16.00;99.90;;;;;;4982176;28;20015;-87
2022/05/12 04:02:00;;;;;;;19.67;11.00;;;16.00;99.90;;;;;;4982560;28;20026;-88
2022/05/12 04:04:26;;;;;;;18.20;10.82;;;16.00;99.90;;;;;;4981671;28;20015;-86
2022/05/12 04:06:53;;;;;;;16.92;11.00;;;16.10;99.90;;;;;;4980289;28;20019;-89
2022/05/12 04:09:19;;;;;;;16.63;11.68;;;16.20;99.90;;;;;;4981084;28;20054;-85
2022/05/12 04:11:45;;;;;;;18.00;10.65;;;16.20;99.90;;;;;;4997186;28;20035;-86
2022/05/12 04:14:10;;;;;;;16.30;10.68;;;16.30;99.90;;;;;;4960782;28;20042;-88
2022/05/12 04:16:36;;;;;;;19.58;10.45;;;16.30;99.90;;;;;;4956790;28;20070;-89
2022/05/12 04:19:05;;;;;;;15.90;10.57;;;16.40;99.90;;;;;;4973695;28;20026;-89
2022/05/12 04:21:34;;;;;;;18.13;10.68;;;16.50;99.90;;;;;;4992436;28;20098;-88
2022/05/12 04:24:10;;;;;;;16.48;9.98;;;16.60;99.90;;;;;;4975010;28;20170;-89
2022/05/12 04:26:38;;;;;;;18.55;9.55;;;16.70;99.90;;;;;;4993114;28;20050;-87
2022/05/12 04:29:04;;;;;;;19.10;8.95;;;16.70;99.90;;;;;;4978809;28;20027;-90
2022/05/12 04:31:31;;;;;;;14.77;8.20;;;16.90;99.90;;;;;;4980252;28;20042;-87
2022/05/12 04:36:42;;;;;;;15.63;8.55;;;17.10;99.90;;;;;;4991710;28;20015;-86
2022/05/12 04:39:08;;;;;;;17.52;8.27;;;17.30;99.90;;;;;;4978872;28;20098;-86
2022/05/12 04:41:35;;;;;;;16.88;7.93;;;17.40;99.90;;;;;;4976581;28;20038;-89
2022/05/12 04:44:01;;;;;;;12.05;8.40;;;17.50;99.90;;;;;;4982718;28;20023;-92
2022/05/12 04:46:28;;;;;;;15.93;8.68;;;17.70;99.90;;;;;;4974904;28;20042;-89
2022/05/12 04:48:55;;;;;;;16.55;9.45;;;18.00;99.90;;;;;;4993727;28;20058;-89
2022/05/12 04:51:22;;;;;;;13.60;9.13;;;18.40;99.90;;;;;;4976976;28;20121;-89
2022/05/12 04:53:48;;;;;;;17.67;9.35;;;18.60;99.90;;;;;;4992700;28;20053;-89
2022/05/12 04:56:14;;;;;;;13.60;9.50;;;18.90;99.90;;;;;;4994877;28;20510;-88
2022/05/12 04:58:40;;;;;;;15.23;9.27;;;19.10;99.90;;;;;;4965307;28;20043;-88
2022/05/12 05:01:07;;;;;;;19.67;9.15;;;19.20;99.90;;;;;;4969849;28;20043;-89
2022/05/12 05:03:33;;;;;;;16.33;10.00;;;19.30;99.90;;;;;;4986274;28;20027;-89
2022/05/12 05:05:59;;;;;;;15.88;10.50;;;19.50;99.90;;;;;;4967001;28;20019;-89
2022/05/12 05:08:25;;;;;;;14.82;8.85;;;19.70;99.90;;;;;;4977052;28;20467;-89
2022/05/12 05:10:53;;;;;;;15.90;9.85;;;19.80;99.90;;;;;;4968812;28;20027;-87
2022/05/12 05:13:19;;;;;;;16.98;9.93;;;19.70;99.90;;;;;;4981292;28;20015;-88
2022/05/12 05:15:47;;;;;;;20.50;9.88;;;19.70;99.90;;;;;;4965772;28;20038;-86
2022/05/12 05:18:15;;;;;;;19.98;9.82;;;19.70;99.90;;;;;;4982326;28;20402;-88
2022/05/12 05:20:42;;;;;;;20.25;9.18;;;19.90;99.90;;;;;;4960972;28;20031;-88
2022/05/12 05:23:08;;;;;;;17.67;9.73;;;20.20;99.90;;;;;;4981262;28;20022;-87
2022/05/12 05:25:34;;;;;;;15.25;10.10;;;20.40;99.90;;;;;;4965447;28;20046;-88
2022/05/12 05:31:58;;;;;;;21.85;10.20;;;20.50;99.90;;;;;;4894539;29;20048;-87
2022/05/12 05:34:42;;;;;;;18.10;10.07;;;20.50;99.90;;;;;;4929881;28;20034;-86
2022/05/12 05:37:26;;;;;;;17.05;8.25;;;20.40;99.90;;;;;;4966953;28;20038;-90
2022/05/12 05:40:20;;;;;;;25.27;8.40;;;20.40;99.90;;;;;;4983203;28;20029;-89
2022/05/12 05:42:59;;;;;;;16.00;7.85;;;20.50;99.90;;;;;;4974410;28;20030;-89
2022/05/12 05:45:51;;;;;;;15.60;7.32;;;20.70;99.90;;;;;;4966943;28;20050;-88
2022/05/12 05:54:59;;;;;;;13.38;7.53;;;21.20;99.90;;;;;;4996029;28;20087;-88
2022/05/12 05:57:51;;;;;;;25.60;8.98;;;21.30;99.90;;;;;;4983949;28;20051;-87
2022/05/12 06:00:46;;;;;;;13.52;7.68;;;21.40;99.90;;;;;;4998507;28;20038;-88
2022/05/12 06:06:46;;;;;;;12.75;6.68;;;21.70;99.90;;;;;;4974058;28;20039;-87
2022/05/12 06:09:31;;;;;;;11.57;6.18;;;22.00;99.90;;;;;;4966554;28;20015;-89
2022/05/12 06:12:10;;;;;;;14.45;6.82;;;22.30;99.90;;;;;;4981749;28;20102;-87
2022/05/12 06:37:32;;;;;;;19.20;5.15;;;23.80;98.40;;;;;;2265957;26;20022;-91
2022/05/12 06:43:00;;;;;;;12.65;4.93;;;24.00;97.30;;;;;;5029242;23;20047;-89
2022/05/12 06:45:32;;;;;;;12.38;4.03;;;24.20;96.80;;;;;;4981472;28;20127;-87
2022/05/12 06:48:32;;;;;;;;;;;;;;;;;;;;;
2022/05/12 06:51:08;;;;;;;8.32;4.70;;;24.60;95.90;;;;;;4979991;28;20058;-87
2022/05/12 06:54:04;;;;;;;15.38;4.72;;;24.80;95.50;;;;;;4962549;28;20023;-89
2022/05/12 06:56:32;;;;;;;14.05;4.50;;;24.90;95.20;;;;;;4977680;28;20043;-89
2022/05/12 06:59:02;;;;;;;14.32;4.63;;;25.10;94.80;;;;;;4962279;28;20020;-87
2022/05/12 07:01:35;;;;;;;10.23;5.93;;;25.30;94.30;;;;;;4962637;28;20039;-88
2022/05/12 07:04:06;;;;;;;17.05;4.93;;;25.40;94.20;;;;;;4977420;28;20043;-88
2022/05/12 07:06:36;;;;;;;7.82;4.43;;;25.60;93.70;;;;;;4950467;28;20023;-88
2022/05/12 07:09:20;;;;;;;;;;;;;;;;;;;;;
2022/05/12 07:11:58;;;;;;;8.10;3.83;;;26.00;92.50;;;;;;4977870;28;20087;-89
2022/05/12 07:17:01;;;;;;;11.55;3.80;;;26.20;91.90;;;;;;3931035;23;20062;-90
2022/05/12 07:19:27;;;;;;;11.65;3.42;;;26.40;91.50;;;;;;4995557;28;20038;-91
2022/05/12 07:27:22;;;;;;;11.00;3.50;;;26.50;90.10;;;;;;4989108;28;20320;-90
2022/05/12 07:29:47;;;;;;;22.98;4.60;;;26.50;90.10;;;;;;4988623;28;20030;-90
2022/05/12 07:32:14;;;;;;;32.33;3.88;;;26.50;89.20;;;;;;4969862;28;20506;-91
2022/05/12 07:34:40;;;;;;;12.30;3.75;;;26.60;87.50;;;;;;4986443;28;20017;-90
2022/05/12 07:37:06;;;;;;;8.52;3.40;;;26.70;88.00;;;;;;4988159;28;20042;-89
2022/05/12 07:39:33;;;;;;;9.70;3.10;;;26.80;87.10;;;;;;4972818;28;20050;-91
2022/05/12 07:42:01;;;;;;;19.08;4.50;;;26.80;87.20;;;;;;4977121;28;20135;-90
2022/05/12 07:44:34;;;;;;;8.88;3.60;;;26.80;86.90;;;;;;4977711;28;20054;-90
2022/05/12 07:47:10;;;;;;;11.60;4.00;;;26.90;86.50;;;;;;4987003;28;20121;-89
2022/05/12 07:49:37;;;;;;;10.77;3.70;;;27.10;85.80;;;;;;4989757;28;20035;-89
2022/05/12 07:52:04;;;;;;;7.35;3.42;;;27.20;85.50;;;;;;4989447;28;20027;-89
2022/05/12 07:54:30;;;;;;;11.07;3.40;;;27.20;84.60;;;;;;5031770;23;20143;-89
2022/05/12 07:56:57;;;;;;;14.05;4.75;;;27.20;84.20;;;;;;4996765;28;20114;-90
2022/05/12 07:59:23;;;;;;;10.45;3.67;;;27.30;84.00;;;;;;4997167;28;20054;-91
2022/05/12 08:01:49;;;;;;;13.98;4.05;;;27.40;83.40;;;;;;4996763;28;20031;-90
2022/05/12 08:04:15;;;;;;;10.68;3.40;;;27.40;83.00;;;;;;4980200;28;20037;-89
2022/05/12 08:06:43;;;;;;;11.60;3.13;;;27.50;82.90;;;;;;4979148;28;20034;-90
2022/05/12 08:09:09;;;;;;;13.05;3.47;;;27.50;82.10;;;;;;4994959;28;20117;-89
2022/05/12 08:11:35;;;;;;;14.95;3.53;;;27.50;82.10;;;;;;4994490;28;20030;-90
2022/05/12 08:14:01;;;;;;;11.27;3.83;;;27.50;81.90;;;;;;4993533;28;20039;-90
2022/05/12 08:16:27;;;;;;;12.00;3.55;;;27.50;81.80;;;;;;4990892;28;20035;-90
2022/05/12 08:18:53;;;;;;;15.02;3.85;;;27.70;81.00;;;;;;4995090;28;20015;-91
2022/05/12 08:21:25;;;;;;;14.75;3.50;;;27.70;80.80;;;;;;4997428;28;20062;-91
2022/05/12 08:23:52;;;;;;;19.90;4.10;;;27.70;80.80;;;;;;4981727;28;20050;-92
2022/05/12 08:26:19;;;;;;;11.98;3.63;;;27.90;80.20;;;;;;4997190;28;20099;-91
2022/05/12 08:28:47;;;;;;;20.30;4.38;;;27.90;79.80;;;;;;4997951;28;20038;-91
2022/05/12 08:31:13;;;;;;;6.80;3.60;;;27.90;79.50;;;;;;5000937;28;20031;-89
2022/05/12 08:33:39;;;;;;;29.73;4.57;;;28.00;78.50;;;;;;5001081;28;20033;-89
2022/05/12 08:36:05;;;;;;;20.13;4.07;;;28.00;77.80;;;;;;4984118;28;20034;-89
2022/05/12 08:38:32;;;;;;;29.52;4.50;;;28.00;77.60;;;;;;4995021;28;20436;-89
2022/05/12 08:41:12;;;;;;;23.55;4.07;;;28.10;77.90;;;;;;4990550;28;20529;-90
2022/05/12 08:43:54;;;;;;;20.73;3.30;;;28.30;77.30;;;;;;4989440;28;20062;-90
2022/05/12 08:46:45;;;;;;;10.85;3.65;;;28.30;77.70;;;;;;4990252;28;20027;-90
2022/05/12 08:49:27;;;;;;;11.40;3.80;;;28.40;77.30;;;;;;4988029;28;20039;-92
2022/05/12 08:52:31;;;;;;;17.50;3.80;;;28.40;77.40;;;;;;4989894;28;20106;-89
2022/05/12 08:55:14;;;;;;;12.43;3.80;;;28.40;77.50;;;;;;4992652;28;20023;-90
2022/05/12 08:58:06;;;;;;;10.23;3.53;;;28.40;77.00;;;;;;4998731;28;20061;-93
2022/05/12 09:00:44;;;;;;;21.38;4.30;;;28.50;77.40;;;;;;5003307;23;20115;-84
2022/05/12 09:03:19;;;;;;;15.48;3.60;;;28.90;76.50;;;;;;4986348;28;20137;-84
2022/05/12 09:06:02;;;;;;;10.48;3.88;;;28.80;76.40;;;;;;4992842;28;20027;-84
2022/05/12 09:09:05;;;;;;;8.75;3.20;;;28.80;76.60;;;;;;4994155;28;20017;-85
2022/05/12 09:11:52;;;;;;;17.38;3.75;;;28.90;77.00;;;;;;4981481;28;20098;-84
2022/05/12 09:14:33;;;;;;;16.02;3.58;;;29.10;75.80;;;;;;4980049;28;20065;-84
2022/05/12 09:17:00;;;;;;;16.67;3.75;;;29.20;75.90;;;;;;4980032;28;20053;-83
2022/05/12 09:19:27;;;;;;;11.85;3.00;;;29.00;75.70;;;;;;4981099;28;20050;-83
2022/05/12 09:21:54;;;;;;;18.65;3.63;;;29.00;75.10;;;;;;4979648;28;20400;-83
2022/05/12 09:24:20;;;;;;;23.17;4.45;;;28.70;75.10;;;;;;4982648;28;20015;-84
2022/05/12 09:27:05;;;;;;;17.95;3.45;;;28.60;74.80;;;;;;4981103;28;20114;-85
2022/05/12 09:29:33;;;;;;;10.83;3.17;;;28.50;74.00;;;;;;4965173;28;20074;-83
2022/05/12 09:32:24;;;;;;;11.43;3.13;;;28.80;73.50;;;;;;4983655;28;20467;-84
2022/05/12 09:35:08;;;;;;;9.27;3.05;;;29.40;72.80;;;;;;4965303;28;20049;-83
2022/05/12 09:37:36;;;;;;;9.18;3.40;;;29.70;71.90;;;;;;4990545;28;20066;-84
2022/05/12 09:40:17;;;;;;;13.48;3.45;;;30.30;71.50;;;;;;4980826;28;20146;-83
2022/05/12 09:42:46;;;;;;;11.80;3.45;;;31.10;71.00;;;;;;4987056;28;20038;-85
2022/05/12 09:45:21;;;;;;;11.52;3.47;;;31.50;70.00;;;;;;4988564;28;20031;-84
2022/05/12 09:47:47;;;;;;;21.90;3.80;;;32.30;68.60;;;;;;4993807;28;20027;-84
2022/05/12 09:50:27;;;;;;;12.65;3.20;;;32.20;67.40;;;;;;4994055;28;20027;-83
2022/05/12 09:53:00;;;;;;;6.35;3.45;;;31.90;67.80;;;;;;4994332;28;20080;-85
2022/05/12 09:55:29;;;;;;;8.88;3.28;;;31.90;68.30;;;;;;4996392;28;20042;-83
2022/05/12 09:57:59;;;;;;;14.50;3.38;;;32.80;65.90;;;;;;4994710;28;20038;-85
2022/05/12 10:00:30;;;;;;;9.90;3.30;;;33.80;64.20;;;;;;4983492;28;20030;-84
2022/05/12 10:09:07;;;;;;;16.00;3.20;;;34.90;60.50;;;;;;4988460;28;20067;-85
2022/05/12 10:12:11;;;;;;;34.88;4.50;;;35.40;59.10;;;;;;4983485;28;20030;-85
2022/05/12 10:14:50;;;;;;;11.50;2.85;;;35.10;58.90;;;;;;4982579;28;20030;-84
2022/05/12 10:17:38;;;;;;;40.75;5.30;;;35.40;58.30;;;;;;4983420;28;20102;-84
2022/05/12 10:20:21;;;;;;;9.68;2.80;;;34.80;58.60;;;;;;4982079;28;20026;-85
2022/05/12 10:23:02;;;;;;;11.13;3.05;;;34.30;58.40;;;;;;4984288;28;20035;-85
2022/05/12 10:26:08;;;;;;;19.25;3.30;;;34.60;58.20;;;;;;4981638;28;20023;-85
2022/05/12 10:28:48;;;;;;;13.93;3.67;;;34.00;58.10;;;;;;4986345;28;20026;-84
2022/05/12 10:31:14;;;;;;;16.38;3.42;;;33.20;58.90;;;;;;4987593;28;20037;-86
2022/05/12 10:34:01;;;;;;;12.68;3.47;;;32.50;59.80;;;;;;4987256;28;20058;-85
2022/05/12 10:36:33;;;;;;;8.23;3.17;;;32.10;60.40;;;;;;4985689;28;20031;-83
2022/05/12 10:39:30;;;;;;;12.68;3.50;;;31.70;61.20;;;;;;4981635;28;20062;-85
2022/05/12 10:42:26;;;;;;;10.13;3.33;;;31.60;61.50;;;;;;4985224;28;20049;-85
2022/05/12 10:45:09;;;;;;;13.93;3.67;;;31.10;61.90;;;;;;4980773;28;20027;-84
2022/05/12 10:47:52;;;;;;;13.82;3.42;;;31.00;62.40;;;;;;4983090;28;20102;-84
2022/05/12 10:50:19;;;;;;;12.40;3.60;;;31.20;62.30;;;;;;4985608;28;20058;-84
2022/05/12 10:52:58;;;;;;;11.30;3.33;;;31.50;62.30;;;;;;4986917;28;20035;-84
2022/05/12 10:55:56;;;;;;;15.55;3.40;;;31.90;61.90;;;;;;4981110;28;20090;-84
2022/05/12 10:58:56;;;;;;;12.13;3.20;;;32.80;61.50;;;;;;4973878;28;20062;-84
2022/05/12 11:01:35;;;;;;;13.38;4.32;;;33.40;61.00;;;;;;4978898;28;20503;-83
2022/05/12 11:04:13;;;;;;;10.85;3.28;;;33.70;60.30;;;;;;4980741;28;20077;-85
2022/05/12 11:06:50;;;;;;;10.57;2.97;;;33.60;60.40;;;;;;4981257;28;20031;-85
2022/05/12 11:09:36;;;;;;;14.05;3.60;;;32.10;62.00;;;;;;4979388;28;20030;-84
2022/05/12 11:12:19;;;;;;;4.20;3.10;;;32.70;62.00;;;;;;4980734;28;20034;-87
2022/05/12 11:15:02;;;;;;;12.55;3.28;;;34.00;60.60;;;;;;4985568;28;20034;-84
2022/05/12 11:17:41;;;;;;;11.00;3.58;;;33.70;61.00;;;;;;4986254;28;20034;-85
2022/05/12 11:20:18;;;;;;;7.03;3.10;;;33.40;60.70;;;;;;4984243;28;20027;-84
2022/05/12 11:22:53;;;;;;;7.22;3.20;;;33.50;61.20;;;;;;4979915;28;20027;-84
2022/05/12 11:25:31;;;;;;;11.93;3.58;;;34.20;60.20;;;;;;4979975;28;20023;-84
2022/05/12 11:31:25;;;;;;;12.95;3.42;;;37.30;58.30;;;;;;4976850;28;20114;-85
2022/05/12 11:33:55;;;;;;;11.77;2.67;;;37.90;56.50;;;;;;4981988;28;20140;-84
2022/05/12 11:36:43;;;;;;;11.00;2.80;;;37.80;56.10;;;;;;4986310;28;20046;-82
2022/05/12 11:39:51;;;;;;;5.78;3.25;;;37.60;56.00;;;;;;4978088;28;20061;-84
2022/05/12 11:42:25;;;;;;;6.95;3.00;;;37.10;56.20;;;;;;4977787;28;20108;-84
2022/05/12 11:44:59;;;;;;;14.80;3.60;;;37.80;55.90;;;;;;4976172;28;20087;-84
2022/05/12 11:47:41;;;;;;;9.82;2.85;;;38.00;55.40;;;;;;4977273;28;20034;-83
2022/05/12 11:50:38;;;;;;;12.38;3.40;;;38.20;55.10;;;;;;4980169;28;20031;-84
2022/05/12 11:53:21;;;;;;;11.15;3.13;;;38.90;53.80;;;;;;4983690;28;20031;-84
2022/05/12 11:56:09;;;;;;;9.00;2.67;;;39.50;53.50;;;;;;4981480;28;20066;-85
2022/05/12 11:58:43;;;;;;;11.52;3.15;;;40.50;52.50;;;;;;4986615;28;20090;-84
2022/05/12 12:01:38;;;;;;;12.85;3.40;;;40.20;52.40;;;;;;4981352;28;20042;-84
2022/05/12 12:04:04;;;;;;;14.45;3.45;;;39.80;52.10;;;;;;4957003;28;20303;-84
2022/05/12 12:06:36;;;;;;;6.43;2.95;;;39.30;52.80;;;;;;4981495;28;20031;-84
2022/05/12 12:09:27;;;;;;;21.20;3.53;;;39.90;52.00;;;;;;4968974;28;20031;-84
2022/05/12 12:11:53;;;;;;;10.80;2.85;;;39.90;51.80;;;;;;4958923;28;20046;-84
2022/05/12 12:14:46;;;;;;;12.57;3.78;;;40.30;52.00;;;;;;4983401;28;20023;-84
2022/05/12 12:17:28;;;;;;;9.02;3.20;;;40.90;51.00;;;;;;4966211;28;20039;-85
2022/05/12 12:19:56;;;;;;;12.57;3.33;;;40.60;51.20;;;;;;4984975;28;20027;-86
2022/05/12 12:22:25;;;;;;;8.25;3.45;;;40.20;51.00;;;;;;4981687;28;20027;-84
2022/05/12 12:25:04;;;;;;;7.38;3.05;;;41.00;51.30;;;;;;4984347;28;20034;-85
2022/05/12 12:27:43;;;;;;;9.45;3.28;;;41.40;50.00;;;;;;4986280;28;20110;-85
2022/05/12 12:30:26;;;;;;;13.20;3.20;;;40.70;50.30;;;;;;4982564;28;20106;-85
2022/05/12 12:33:13;;;;;;;7.80;3.60;;;40.60;50.50;;;;;;4983449;28;20086;-86
2022/05/12 12:36:02;;;;;;;9.45;3.15;;;40.70;50.30;;;;;;4983824;28;20054;-84
2022/05/12 12:38:46;;;;;;;11.93;3.30;;;40.90;50.00;;;;;;4988529;28;20090;-85
2022/05/12 12:41:29;;;;;;;8.50;3.08;;;40.10;50.50;;;;;;4982398;28;20069;-84
2022/05/12 12:44:03;;;;;;;7.43;3.35;;;40.40;50.50;;;;;;4984659;28;20026;-84
2022/05/12 12:46:32;;;;;;;7.90;2.90;;;40.60;50.30;;;;;;4994759;28;20046;-84
2022/05/12 12:49:08;;;;;;;6.68;3.38;;;41.40;49.80;;;;;;4994599;28;20034;-83
2022/05/12 12:51:36;;;;;;;9.82;3.30;;;41.70;49.50;;;;;;4981979;28;20050;-84
2022/05/12 12:57:11;;;;;;;9.25;4.00;;;42.10;48.80;;;;;;4981093;28;20157;-85
2022/05/12 12:59:43;;;;;;;13.75;3.60;;;41.80;48.90;;;;;;4971493;28;20039;-85
2022/05/12 13:02:28;;;;;;;14.85;4.28;;;41.90;48.60;;;;;;4969130;29;20037;-84
2022/05/12 13:04:56;;;;;;;10.55;3.85;;;42.00;48.50;;;;;;4962894;29;20034;-85
2022/05/12 13:07:28;;;;;;;8.60;3.22;;;42.00;48.40;;;;;;4963358;28;20027;-84
2022/05/12 13:09:56;;;;;;;16.48;3.60;;;41.50;48.50;;;;;;4977894;28;20096;-84
2022/05/12 13:12:26;;;;;;;11.30;3.28;;;40.70;49.00;;;;;;4980576;28;20105;-84
2022/05/12 13:14:53;;;;;;;12.63;3.83;;;40.30;49.70;;;;;;4987932;28;20133;-84
2022/05/12 13:17:22;;;;;;;9.52;3.05;;;40.90;49.10;;;;;;4984891;28;20206;-85
2022/05/12 13:19:48;;;;;;;6.30;3.75;;;41.00;48.80;;;;;;4977119;29;20102;-87
2022/05/12 13:22:25;;;;;;;8.02;3.15;;;41.00;48.90;;;;;;4976896;29;20059;-85
2022/05/12 13:24:51;;;;;;;8.60;3.20;;;40.90;49.00;;;;;;4985297;28;20115;-86
2022/05/12 13:27:21;;;;;;;7.82;2.75;;;41.10;48.70;;;;;;4992348;28;20034;-87
2022/05/12 13:29:47;;;;;;;7.35;3.10;;;41.60;48.50;;;;;;4997128;28;20095;-87
2022/05/12 13:32:32;;;;;;;6.20;3.38;;;42.30;47.90;;;;;;4999371;28;20015;-87
2022/05/12 13:35:08;;;;;;;5.72;3.00;;;42.20;47.90;;;;;;4989285;28;20030;-86
2022/05/12 13:37:34;;;;;;;7.00;3.30;;;42.10;48.50;;;;;;4997190;28;20022;-85
2022/05/12 13:40:01;;;;;;;13.90;3.28;;;41.70;48.10;;;;;;4995390;28;20089;-87
2022/05/12 13:42:40;;;;;;;6.32;2.90;;;41.30;48.40;;;;;;4995843;28;20023;-86
2022/05/12 13:45:21;;;;;;;20.73;3.40;;;40.90;48.80;;;;;;4996078;28;20050;-87
2022/05/12 13:47:49;;;;;;;9.27;3.20;;;40.90;48.50;;;;;;4998909;28;20033;-87
2022/05/12 13:50:16;;;;;;;9.73;3.35;;;41.00;48.80;;;;;;4993948;28;20079;-87
2022/05/12 13:52:48;;;;;;;7.15;3.80;;;41.60;48.40;;;;;;4993331;28;20048;-86
2022/05/12 13:55:26;;;;;;;6.30;3.00;;;41.90;48.20;;;;;;4996319;28;20086;-87
2022/05/12 13:57:55;;;;;;;10.13;3.30;;;41.80;48.30;;;;;;4993450;28;20055;-84
2022/05/12 14:00:47;;;;;;;10.23;3.17;;;42.30;48.10;;;;;;4996938;28;20078;-86
2022/05/12 14:03:30;;;;;;;12.90;3.72;;;41.50;48.00;;;;;;4995263;28;20095;-87
2022/05/12 14:06:08;;;;;;;7.30;3.30;;;41.20;48.30;;;;;;4979615;28;20019;-86
2022/05/12 14:08:34;;;;;;;11.50;3.38;;;40.80;48.60;;;;;;4979374;28;20050;-88
2022/05/12 14:11:00;;;;;;;14.48;3.10;;;41.30;48.50;;;;;;4979805;28;20027;-86